sensor_id;sensor_type;location;lat;lon;timestamp;pressure;altitude;pressure_sealevel;temperature;humidity
33075;BME280;19433;51.292;6.868;2023-04-02T00:06:32;99607.53;;;5.75;100.00
33075;BME280;19433;51.292;6.868;2023-04-02T00:08:59;99620.09;;;5.69;100.00
33075;BME280;19433;51.292;6.868;2023-04-02T00:11:31;99620.09;;;5.69;100.00
33075;BME280;19433;51.292;6.868;2023-04-02T00:14:00;99632.28;;;5.66;100.00
33075;BME280;19433;51.292;6.868;2023-04-02T00:16:27;99632.03;;;5.61;100.00
33075;BME280;19433;51.292;6.868;2023-04-02T00:18:55;99638.81;;;5.65;100.00
33075;BME280;19433;51.292;6.868;2023-04-02T00:21:28;99645.47;;;5.56;100.00
33075;BME280;19433;51.292;6.868;2023-04-02T00:23:55;99645.47;;;5.56;100.00
33075;BME280;19433;51.292;6.868;2023-04-02T00:26:35;99650.88;;;5.50;100.00
33075;BME280;19433;51.292;6.868;2023-04-02T00:29:04;99660.19;;;5.55;100.00
33075;BME280;19433;51.292;6.868;2023-04-02T00:31:30;99654.06;;;5.53;100.00
33075;BME280;19433;51.292;6.868;2023-04-02T00:33:59;99654.06;;;5.53;100.00
33075;BME280;19433;51.292;6.868;2023-04-02T00:36:28;99662.88;;;5.49;100.00
33075;BME280;19433;51.292;6.868;2023-04-02T00:38:57;99662.88;;;5.49;100.00
33075;BME280;19433;51.292;6.868;2023-04-02T00:41:26;99662.88;;;5.49;100.00
33075;BME280;19433;51.292;6.868;2023-04-02T00:43:55;99662.88;;;5.49;100.00
33075;BME280;19433;51.292;6.868;2023-04-02T00:46:30;65403.31;;;-146.38;100.00
33075;BME280;19433;51.292;6.868;2023-04-02T00:49:04;65403.31;;;-146.38;100.00
33075;BME280;19433;51.292;6.868;2023-04-02T00:51:40;65403.31;;;-146.38;100.00
33075;BME280;19433;51.292;6.868;2023-04-02T00:54:10;65403.31;;;-146.38;100.00
33075;BME280;19433;51.292;6.868;2023-04-02T00:56:44;65403.31;;;-146.38;100.00
33075;BME280;19433;51.292;6.868;2023-04-02T00:59:29;65403.31;;;-146.38;100.00
33075;BME280;19433;51.292;6.868;2023-04-02T01:04:41;65403.31;;;-146.38;100.00
33075;BME280;19433;51.292;6.868;2023-04-02T01:07:09;65403.31;;;-146.38;100.00
33075;BME280;19433;51.292;6.868;2023-04-02T01:09:51;65403.31;;;-146.38;100.00
33075;BME280;19433;51.292;6.868;2023-04-02T01:12:28;65403.31;;;-146.38;100.00
33075;BME280;19433;51.292;6.868;2023-04-02T01:15:20;65403.31;;;-146.38;100.00
33075;BME280;19433;51.292;6.868;2023-04-02T01:20:58;65403.31;;;-146.38;100.00
33075;BME280;19433;51.292;6.868;2023-04-02T01:23:34;65403.31;;;-146.38;100.00
33075;BME280;19433;51.292;6.868;2023-04-02T01:31:10;65403.31;;;-146.38;100.00
33075;BME280;19433;51.292;6.868;2023-04-02T01:33:36;65403.31;;;-146.38;100.00
33075;BME280;19433;51.292;6.868;2023-04-02T01:36:26;65403.31;;;-146.38;100.00
33075;BME280;19433;51.292;6.868;2023-04-02T01:44:15;65403.31;;;-146.38;100.00
33075;BME280;19433;51.292;6.868;2023-04-02T01:46:47;65403.31;;;-146.38;100.00
33075;BME280;19433;51.292;6.868;2023-04-02T01:49:15;65403.31;;;-146.38;100.00
33075;BME280;19433;51.292;6.868;2023-04-02T01:51:44;65403.31;;;-146.38;100.00
33075;BME280;19433;51.292;6.868;2023-04-02T01:54:12;65403.31;;;-146.38;100.00
33075;BME280;19433;51.292;6.868;2023-04-02T01:56:40;65403.31;;;-146.38;100.00
33075;BME280;19433;51.292;6.868;2023-04-02T01:59:06;65403.31;;;-146.38;100.00
33075;BME280;19433;51.292;6.868;2023-04-02T02:01:39;65403.31;;;-146.38;100.00
33075;BME280;19433;51.292;6.868;2023-04-02T02:04:10;65403.31;;;-146.38;100.00
33075;BME280;19433;51.292;6.868;2023-04-02T02:06:37;65403.31;;;-146.38;100.00
33075;BME280;19433;51.292;6.868;2023-04-02T02:09:05;65403.31;;;-146.38;100.00
33075;BME280;19433;51.292;6.868;2023-04-02T02:11:32;65403.31;;;-146.38;100.00
33075;BME280;19433;51.292;6.868;2023-04-02T02:14:19;65403.31;;;-146.38;100.00
33075;BME280;19433;51.292;6.868;2023-04-02T02:16:44;65403.31;;;-146.38;100.00
33075;BME280;19433;51.292;6.868;2023-04-02T02:19:33;65403.31;;;-146.38;100.00
33075;BME280;19433;51.292;6.868;2023-04-02T02:22:27;65403.31;;;-146.38;100.00
33075;BME280;19433;51.292;6.868;2023-04-02T02:24:58;65403.31;;;-146.38;100.00
33075;BME280;19433;51.292;6.868;2023-04-02T02:32:24;65403.31;;;-146.38;100.00
33075;BME280;19433;51.292;6.868;2023-04-02T02:34:59;65403.31;;;-146.38;100.00
33075;BME280;19433;51.292;6.868;2023-04-02T02:37:34;65403.31;;;-146.38;100.00
33075;BME280;19433;51.292;6.868;2023-04-02T02:40:02;65403.31;;;-146.38;100.00
33075;BME280;19433;51.292;6.868;2023-04-02T02:42:38;65403.31;;;-146.38;100.00
33075;BME280;19433;51.292;6.868;2023-04-02T02:45:12;65403.31;;;-146.38;100.00
33075;BME280;19433;51.292;6.868;2023-04-02T02:47:42;65403.31;;;-146.38;100.00
33075;BME280;19433;51.292;6.868;2023-04-02T02:50:21;65403.31;;;-146.38;100.00
33075;BME280;19433;51.292;6.868;2023-04-02T02:52:54;65403.31;;;-146.38;100.00
33075;BME280;19433;51.292;6.868;2023-04-02T02:55:27;65403.31;;;-146.38;100.00
33075;BME280;19433;51.292;6.868;2023-04-02T02:57:57;65403.31;;;-146.38;100.00
33075;BME280;19433;51.292;6.868;2023-04-02T03:00:25;65403.31;;;-146.38;100.00
33075;BME280;19433;51.292;6.868;2023-04-02T03:02:53;65403.31;;;-146.38;100.00
33075;BME280;19433;51.292;6.868;2023-04-02T03:05:23;65403.31;;;-146.38;100.00
33075;BME280;19433;51.292;6.868;2023-04-02T03:07:52;65403.31;;;-146.38;100.00
33075;BME280;19433;51.292;6.868;2023-04-02T03:15:39;65403.31;;;-146.38;100.00
33075;BME280;19433;51.292;6.868;2023-04-02T03:18:18;65403.31;;;-146.38;100.00
33075;BME280;19433;51.292;6.868;2023-04-02T03:21:19;65403.31;;;-146.38;100.00
33075;BME280;19433;51.292;6.868;2023-04-02T03:23:50;65403.31;;;-146.38;100.00
33075;BME280;19433;51.292;6.868;2023-04-02T03:28:53;65403.31;;;-146.38;100.00
33075;BME280;19433;51.292;6.868;2023-04-02T03:31:32;65403.31;;;-146.38;100.00
33075;BME280;19433;51.292;6.868;2023-04-02T03:34:27;65403.31;;;-146.38;100.00
33075;BME280;19433;51.292;6.868;2023-04-02T03:39:53;65403.31;;;-146.38;100.00
33075;BME280;19433;51.292;6.868;2023-04-02T03:42:23;65403.31;;;-146.38;100.00
33075;BME280;19433;51.292;6.868;2023-04-02T03:45:10;65403.31;;;-146.38;100.00
33075;BME280;19433;51.292;6.868;2023-04-02T03:50:16;65403.31;;;-146.38;100.00
33075;BME280;19433;51.292;6.868;2023-04-02T03:52:43;65403.31;;;-146.38;100.00
33075;BME280;19433;51.292;6.868;2023-04-02T03:55:15;65403.31;;;-146.38;100.00
33075;BME280;19433;51.292;6.868;2023-04-02T03:57:46;65403.31;;;-146.38;100.00
33075;BME280;19433;51.292;6.868;2023-04-02T04:00:24;65403.31;;;-146.38;100.00
33075;BME280;19433;51.292;6.868;2023-04-02T04:02:59;65403.31;;;-146.38;100.00
33075;BME280;19433;51.292;6.868;2023-04-02T04:05:33;65403.31;;;-146.38;100.00
33075;BME280;19433;51.292;6.868;2023-04-02T04:08:04;65403.31;;;-146.38;100.00
33075;BME280;19433;51.292;6.868;2023-04-02T04:10:31;65403.31;;;-146.38;100.00
33075;BME280;19433;51.292;6.868;2023-04-02T04:13:10;65403.31;;;-146.38;100.00
33075;BME280;19433;51.292;6.868;2023-04-02T04:18:22;65403.31;;;-146.38;100.00
33075;BME280;19433;51.292;6.868;2023-04-02T04:21:01;65403.31;;;-146.38;100.00
33075;BME280;19433;51.292;6.868;2023-04-02T04:23:35;65403.31;;;-146.38;100.00
33075;BME280;19433;51.292;6.868;2023-04-02T04:26:07;65403.31;;;-146.38;100.00
33075;BME280;19433;51.292;6.868;2023-04-02T04:29:12;65403.31;;;-146.38;100.00
33075;BME280;19433;51.292;6.868;2023-04-02T04:31:43;65403.31;;;-146.38;100.00
33075;BME280;19433;51.292;6.868;2023-04-02T04:34:14;65403.31;;;-146.38;100.00
33075;BME280;19433;51.292;6.868;2023-04-02T04:36:44;65403.31;;;-146.38;100.00
33075;BME280;19433;51.292;6.868;2023-04-02T04:42:00;65403.31;;;-146.38;100.00
33075;BME280;19433;51.292;6.868;2023-04-02T04:44:52;65403.31;;;-146.38;100.00
33075;BME280;19433;51.292;6.868;2023-04-02T04:47:24;65403.31;;;-146.38;100.00
33075;BME280;19433;51.292;6.868;2023-04-02T04:50:03;65403.31;;;-146.38;100.00
33075;BME280;19433;51.292;6.868;2023-04-02T04:52:36;65403.31;;;-146.38;100.00
33075;BME280;19433;51.292;6.868;2023-04-02T04:55:25;65403.31;;;-146.38;100.00
33075;BME280;19433;51.292;6.868;2023-04-02T04:57:54;65403.31;;;-146.38;100.00
33075;BME280;19433;51.292;6.868;2023-04-02T05:00:34;65403.31;;;-146.38;100.00
33075;BME280;19433;51.292;6.868;2023-04-02T05:06:11;65403.31;;;-146.38;100.00
33075;BME280;19433;51.292;6.868;2023-04-02T05:08:43;65403.31;;;-146.38;100.00
33075;BME280;19433;51.292;6.868;2023-04-02T05:11:19;65403.31;;;-146.38;100.00
33075;BME280;19433;51.292;6.868;2023-04-02T05:13:52;65403.31;;;-146.38;100.00
33075;BME280;19433;51.292;6.868;2023-04-02T05:16:21;65403.31;;;-146.38;100.00
33075;BME280;19433;51.292;6.868;2023-04-02T05:18:58;65403.31;;;-146.38;100.00
33075;BME280;19433;51.292;6.868;2023-04-02T05:21:42;65403.31;;;-146.38;100.00
33075;BME280;19433;51.292;6.868;2023-04-02T05:27:18;65403.31;;;-146.38;100.00
33075;BME280;19433;51.292;6.868;2023-04-02T05:29:50;65403.31;;;-146.38;100.00
33075;BME280;19433;51.292;6.868;2023-04-02T05:32:21;65403.31;;;-146.38;100.00
33075;BME280;19433;51.292;6.868;2023-04-02T05:34:51;65403.31;;;-146.38;100.00
33075;BME280;19433;51.292;6.868;2023-04-02T05:37:20;65403.31;;;-146.38;100.00
33075;BME280;19433;51.292;6.868;2023-04-02T05:39:52;65403.31;;;-146.38;100.00
33075;BME280;19433;51.292;6.868;2023-04-02T05:42:23;65403.31;;;-146.38;100.00
33075;BME280;19433;51.292;6.868;2023-04-02T05:45:02;65403.31;;;-146.38;100.00
33075;BME280;19433;51.292;6.868;2023-04-02T05:47:31;65403.31;;;-146.38;100.00
33075;BME280;19433;51.292;6.868;2023-04-02T05:52:34;65403.31;;;-146.38;100.00
33075;BME280;19433;51.292;6.868;2023-04-02T05:57:51;65403.31;;;-146.38;100.00
33075;BME280;19433;51.292;6.868;2023-04-02T06:01:05;65403.31;;;-146.38;100.00
33075;BME280;19433;51.292;6.868;2023-04-02T06:03:50;65403.31;;;-146.38;100.00
33075;BME280;19433;51.292;6.868;2023-04-02T06:06:39;65403.31;;;-146.38;100.00
33075;BME280;19433;51.292;6.868;2023-04-02T06:11:53;65403.31;;;-146.38;100.00
33075;BME280;19433;51.292;6.868;2023-04-02T06:14:21;65403.31;;;-146.38;100.00
33075;BME280;19433;51.292;6.868;2023-04-02T06:16:46;65403.31;;;-146.38;100.00
33075;BME280;19433;51.292;6.868;2023-04-02T06:19:16;65403.31;;;-146.38;100.00
33075;BME280;19433;51.292;6.868;2023-04-02T06:21:45;65403.31;;;-146.38;100.00
33075;BME280;19433;51.292;6.868;2023-04-02T06:24:14;65403.31;;;-146.38;100.00
33075;BME280;19433;51.292;6.868;2023-04-02T06:26:46;65403.31;;;-146.38;100.00
33075;BME280;19433;51.292;6.868;2023-04-02T06:29:22;65403.31;;;-146.38;100.00
33075;BME280;19433;51.292;6.868;2023-04-02T06:31:54;65403.31;;;-146.38;100.00
33075;BME280;19433;51.292;6.868;2023-04-02T06:34:23;65403.31;;;-146.38;100.00
33075;BME280;19433;51.292;6.868;2023-04-02T06:36:54;65403.31;;;-146.38;100.00
33075;BME280;19433;51.292;6.868;2023-04-02T06:39:22;65403.31;;;-146.38;100.00
33075;BME280;19433;51.292;6.868;2023-04-02T06:41:58;65403.31;;;-146.38;100.00
33075;BME280;19433;51.292;6.868;2023-04-02T06:44:26;65403.31;;;-146.38;100.00
33075;BME280;19433;51.292;6.868;2023-04-02T06:47:03;65403.31;;;-146.38;100.00
33075;BME280;19433;51.292;6.868;2023-04-02T06:49:39;65403.31;;;-146.38;100.00
33075;BME280;19433;51.292;6.868;2023-04-02T06:52:14;65403.31;;;-146.38;100.00
33075;BME280;19433;51.292;6.868;2023-04-02T06:54:42;65403.31;;;-146.38;100.00
33075;BME280;19433;51.292;6.868;2023-04-02T06:57:08;65403.31;;;-146.38;100.00
33075;BME280;19433;51.292;6.868;2023-04-02T06:59:34;65403.31;;;-146.38;100.00
33075;BME280;19433;51.292;6.868;2023-04-02T07:02:06;65403.31;;;-146.38;100.00
33075;BME280;19433;51.292;6.868;2023-04-02T07:04:40;65403.31;;;-146.38;100.00
33075;BME280;19433;51.292;6.868;2023-04-02T07:07:06;65403.31;;;-146.38;100.00
33075;BME280;19433;51.292;6.868;2023-04-02T07:09:31;65403.31;;;-146.38;100.00
33075;BME280;19433;51.292;6.868;2023-04-02T07:11:57;65403.31;;;-146.38;100.00
33075;BME280;19433;51.292;6.868;2023-04-02T07:14:22;65403.31;;;-146.38;100.00
33075;BME280;19433;51.292;6.868;2023-04-02T07:16:47;65403.31;;;-146.38;100.00
33075;BME280;19433;51.292;6.868;2023-04-02T07:19:20;65403.31;;;-146.38;100.00
33075;BME280;19433;51.292;6.868;2023-04-02T07:21:46;65403.31;;;-146.38;100.00
33075;BME280;19433;51.292;6.868;2023-04-02T07:24:12;65403.31;;;-146.38;100.00
33075;BME280;19433;51.292;6.868;2023-04-02T07:26:38;65403.31;;;-146.38;100.00
33075;BME280;19433;51.292;6.868;2023-04-02T07:29:07;65403.31;;;-146.38;100.00
33075;BME280;19433;51.292;6.868;2023-04-02T07:31:33;65403.31;;;-146.38;100.00
33075;BME280;19433;51.292;6.868;2023-04-02T07:33:59;65403.31;;;-146.38;100.00
33075;BME280;19433;51.292;6.868;2023-04-02T07:36:26;65403.31;;;-146.38;100.00
33075;BME280;19433;51.292;6.868;2023-04-02T07:38:52;65403.31;;;-146.38;100.00
33075;BME280;19433;51.292;6.868;2023-04-02T07:41:18;65403.31;;;-146.38;100.00
33075;BME280;19433;51.292;6.868;2023-04-02T07:43:44;65403.31;;;-146.38;100.00
33075;BME280;19433;51.292;6.868;2023-04-02T07:46:10;65403.31;;;-146.38;100.00
33075;BME280;19433;51.292;6.868;2023-04-02T07:48:35;65403.31;;;-146.38;100.00
33075;BME280;19433;51.292;6.868;2023-04-02T07:51:01;65403.31;;;-146.38;100.00
33075;BME280;19433;51.292;6.868;2023-04-02T07:53:35;65403.31;;;-146.38;100.00
33075;BME280;19433;51.292;6.868;2023-04-02T07:56:03;65403.31;;;-146.38;100.00
33075;BME280;19433;51.292;6.868;2023-04-02T07:58:29;65403.31;;;-146.38;100.00
33075;BME280;19433;51.292;6.868;2023-04-02T08:00:55;65403.31;;;-146.38;100.00
33075;BME280;19433;51.292;6.868;2023-04-02T08:03:21;65403.31;;;-146.38;100.00
33075;BME280;19433;51.292;6.868;2023-04-02T08:05:52;65403.31;;;-146.38;100.00
33075;BME280;19433;51.292;6.868;2023-04-02T08:08:18;65403.31;;;-146.38;100.00
33075;BME280;19433;51.292;6.868;2023-04-02T08:10:44;65403.31;;;-146.38;100.00
33075;BME280;19433;51.292;6.868;2023-04-02T08:13:09;65403.31;;;-146.38;100.00
33075;BME280;19433;51.292;6.868;2023-04-02T08:15:34;65403.31;;;-146.38;100.00
33075;BME280;19433;51.292;6.868;2023-04-02T08:18:00;65403.31;;;-146.38;100.00
33075;BME280;19433;51.292;6.868;2023-04-02T08:20:25;65403.31;;;-146.38;100.00
33075;BME280;19433;51.292;6.868;2023-04-02T08:22:51;65403.31;;;-146.38;100.00
33075;BME280;19433;51.292;6.868;2023-04-02T08:25:16;65403.31;;;-146.38;100.00
33075;BME280;19433;51.292;6.868;2023-04-02T08:27:45;65403.31;;;-146.38;100.00
33075;BME280;19433;51.292;6.868;2023-04-02T08:30:11;65403.31;;;-146.38;100.00
33075;BME280;19433;51.292;6.868;2023-04-02T08:32:37;65403.31;;;-146.38;100.00
33075;BME280;19433;51.292;6.868;2023-04-02T08:35:05;65403.31;;;-146.38;100.00
33075;BME280;19433;51.292;6.868;2023-04-02T08:37:31;65403.31;;;-146.38;100.00
33075;BME280;19433;51.292;6.868;2023-04-02T08:39:56;65403.31;;;-146.38;100.00
33075;BME280;19433;51.292;6.868;2023-04-02T08:42:36;65403.31;;;-146.38;100.00
33075;BME280;19433;51.292;6.868;2023-04-02T08:48:09;65403.31;;;-146.38;100.00
33075;BME280;19433;51.292;6.868;2023-04-02T08:50:40;65403.31;;;-146.38;100.00
33075;BME280;19433;51.292;6.868;2023-04-02T08:53:15;65403.31;;;-146.38;100.00
33075;BME280;19433;51.292;6.868;2023-04-02T08:56:06;65403.31;;;-146.38;100.00
33075;BME280;19433;51.292;6.868;2023-04-02T08:58:41;65403.31;;;-146.38;100.00
33075;BME280;19433;51.292;6.868;2023-04-02T09:03:47;65403.31;;;-146.38;100.00
33075;BME280;19433;51.292;6.868;2023-04-02T09:06:17;65403.31;;;-146.38;100.00
33075;BME280;19433;51.292;6.868;2023-04-02T09:08:45;65403.31;;;-146.38;100.00
33075;BME280;19433;51.292;6.868;2023-04-02T09:11:21;65403.31;;;-146.38;100.00
33075;BME280;19433;51.292;6.868;2023-04-02T09:13:51;65403.31;;;-146.38;100.00
33075;BME280;19433;51.292;6.868;2023-04-02T09:16:19;65403.31;;;-146.38;100.00
33075;BME280;19433;51.292;6.868;2023-04-02T09:18:47;65403.31;;;-146.38;100.00
33075;BME280;19433;51.292;6.868;2023-04-02T09:23:46;65403.31;;;-146.38;100.00
33075;BME280;19433;51.292;6.868;2023-04-02T09:26:23;65403.31;;;-146.38;100.00
33075;BME280;19433;51.292;6.868;2023-04-02T09:29:00;65403.31;;;-146.38;100.00
33075;BME280;19433;51.292;6.868;2023-04-02T09:31:38;65403.31;;;-146.38;100.00
33075;BME280;19433;51.292;6.868;2023-04-02T09:36:52;65403.31;;;-146.38;100.00
33075;BME280;19433;51.292;6.868;2023-04-02T09:39:23;65403.31;;;-146.38;100.00
33075;BME280;19433;51.292;6.868;2023-04-02T09:41:50;65403.31;;;-146.38;100.00
33075;BME280;19433;51.292;6.868;2023-04-02T09:49:14;65403.31;;;-146.38;100.00
33075;BME280;19433;51.292;6.868;2023-04-02T09:51:42;65403.31;;;-146.38;100.00
33075;BME280;19433;51.292;6.868;2023-04-02T09:54:13;65403.31;;;-146.38;100.00
33075;BME280;19433;51.292;6.868;2023-04-02T09:56:39;65403.31;;;-146.38;100.00
33075;BME280;19433;51.292;6.868;2023-04-02T09:59:15;65403.31;;;-146.38;100.00
33075;BME280;19433;51.292;6.868;2023-04-02T10:01:55;65403.31;;;-146.38;100.00
33075;BME280;19433;51.292;6.868;2023-04-02T10:07:04;65403.31;;;-146.38;100.00
33075;BME280;19433;51.292;6.868;2023-04-02T10:09:37;65403.31;;;-146.38;100.00
33075;BME280;19433;51.292;6.868;2023-04-02T10:12:10;65403.31;;;-146.38;100.00
33075;BME280;19433;51.292;6.868;2023-04-02T10:14:43;65403.31;;;-146.38;100.00
33075;BME280;19433;51.292;6.868;2023-04-02T10:17:26;65403.31;;;-146.38;100.00
33075;BME280;19433;51.292;6.868;2023-04-02T10:19:58;65403.31;;;-146.38;100.00
33075;BME280;19433;51.292;6.868;2023-04-02T10:22:26;65403.31;;;-146.38;100.00
33075;BME280;19433;51.292;6.868;2023-04-02T10:24:52;65403.31;;;-146.38;100.00
33075;BME280;19433;51.292;6.868;2023-04-02T10:30:27;65403.31;;;-146.38;100.00
33075;BME280;19433;51.292;6.868;2023-04-02T10:32:59;65403.31;;;-146.38;100.00
33075;BME280;19433;51.292;6.868;2023-04-02T10:38:50;65403.31;;;-146.38;100.00
33075;BME280;19433;51.292;6.868;2023-04-02T10:41:35;65403.31;;;-146.38;100.00
33075;BME280;19433;51.292;6.868;2023-04-02T10:49:41;65403.31;;;-146.38;100.00
33075;BME280;19433;51.292;6.868;2023-04-02T10:52:28;65403.31;;;-146.38;100.00
33075;BME280;19433;51.292;6.868;2023-04-02T10:55:03;65403.31;;;-146.38;100.00
33075;BME280;19433;51.292;6.868;2023-04-02T10:57:35;65403.31;;;-146.38;100.00
33075;BME280;19433;51.292;6.868;2023-04-02T11:02:55;65403.31;;;-146.38;100.00
33075;BME280;19433;51.292;6.868;2023-04-02T11:05:31;65403.31;;;-146.38;100.00
33075;BME280;19433;51.292;6.868;2023-04-02T11:08:17;65403.31;;;-146.38;100.00
33075;BME280;19433;51.292;6.868;2023-04-02T11:10:51;65403.31;;;-146.38;100.00
33075;BME280;19433;51.292;6.868;2023-04-02T11:15:52;65403.31;;;-146.38;100.00
33075;BME280;19433;51.292;6.868;2023-04-02T11:18:26;65403.31;;;-146.38;100.00
33075;BME280;19433;51.292;6.868;2023-04-02T11:20:58;65403.31;;;-146.38;100.00
33075;BME280;19433;51.292;6.868;2023-04-02T11:23:33;65403.31;;;-146.38;100.00
33075;BME280;19433;51.292;6.868;2023-04-02T11:26:36;65403.31;;;-146.38;100.00
33075;BME280;19433;51.292;6.868;2023-04-02T11:31:43;65403.31;;;-146.38;100.00
33075;BME280;19433;51.292;6.868;2023-04-02T11:37:33;65403.31;;;-146.38;100.00
33075;BME280;19433;51.292;6.868;2023-04-02T11:40:01;65403.31;;;-146.38;100.00
33075;BME280;19433;51.292;6.868;2023-04-02T11:42:29;65403.31;;;-146.38;100.00
33075;BME280;19433;51.292;6.868;2023-04-02T11:44:58;65403.31;;;-146.38;100.00
33075;BME280;19433;51.292;6.868;2023-04-02T11:47:28;65403.31;;;-146.38;100.00
33075;BME280;19433;51.292;6.868;2023-04-02T11:52:51;65403.31;;;-146.38;100.00
33075;BME280;19433;51.292;6.868;2023-04-02T11:55:21;65403.31;;;-146.38;100.00
33075;BME280;19433;51.292;6.868;2023-04-02T11:57:56;65403.31;;;-146.38;100.00
33075;BME280;19433;51.292;6.868;2023-04-02T12:03:35;65403.31;;;-146.38;100.00
33075;BME280;19433;51.292;6.868;2023-04-02T12:11:32;65403.31;;;-146.38;100.00
33075;BME280;19433;51.292;6.868;2023-04-02T12:13:59;65403.31;;;-146.38;100.00
33075;BME280;19433;51.292;6.868;2023-04-02T12:16:26;65403.31;;;-146.38;100.00
33075;BME280;19433;51.292;6.868;2023-04-02T12:18:58;65403.31;;;-146.38;100.00
33075;BME280;19433;51.292;6.868;2023-04-02T12:21:26;65403.31;;;-146.38;100.00
33075;BME280;19433;51.292;6.868;2023-04-02T12:23:56;65403.31;;;-146.38;100.00
33075;BME280;19433;51.292;6.868;2023-04-02T12:26:28;65403.31;;;-146.38;100.00
33075;BME280;19433;51.292;6.868;2023-04-02T12:29:12;65403.31;;;-146.38;100.00
33075;BME280;19433;51.292;6.868;2023-04-02T12:31:42;65403.31;;;-146.38;100.00
33075;BME280;19433;51.292;6.868;2023-04-02T12:34:13;65403.31;;;-146.38;100.00
33075;BME280;19433;51.292;6.868;2023-04-02T12:36:38;65403.31;;;-146.38;100.00
33075;BME280;19433;51.292;6.868;2023-04-02T12:39:15;65403.31;;;-146.38;100.00
33075;BME280;19433;51.292;6.868;2023-04-02T12:41:41;65403.31;;;-146.38;100.00
33075;BME280;19433;51.292;6.868;2023-04-02T12:44:16;65403.31;;;-146.38;100.00
33075;BME280;19433;51.292;6.868;2023-04-02T12:46:44;65403.31;;;-146.38;100.00
33075;BME280;19433;51.292;6.868;2023-04-02T12:49:37;65403.31;;;-146.38;100.00
33075;BME280;19433;51.292;6.868;2023-04-02T12:52:11;65403.31;;;-146.38;100.00
33075;BME280;19433;51.292;6.868;2023-04-02T12:54:52;65403.31;;;-146.38;100.00
33075;BME280;19433;51.292;6.868;2023-04-02T12:59:57;65403.31;;;-146.38;100.00
33075;BME280;19433;51.292;6.868;2023-04-02T13:02:29;65403.31;;;-146.38;100.00
33075;BME280;19433;51.292;6.868;2023-04-02T13:04:57;65403.31;;;-146.38;100.00
33075;BME280;19433;51.292;6.868;2023-04-02T13:07:31;65403.31;;;-146.38;100.00
33075;BME280;19433;51.292;6.868;2023-04-02T13:09:59;65403.31;;;-146.38;100.00
33075;BME280;19433;51.292;6.868;2023-04-02T13:12:36;65403.31;;;-146.38;100.00
33075;BME280;19433;51.292;6.868;2023-04-02T13:15:28;65403.31;;;-146.38;100.00
33075;BME280;19433;51.292;6.868;2023-04-02T13:20:35;65403.31;;;-146.38;100.00
33075;BME280;19433;51.292;6.868;2023-04-02T13:23:22;65403.31;;;-146.38;100.00
33075;BME280;19433;51.292;6.868;2023-04-02T13:25:48;65403.31;;;-146.38;100.00
33075;BME280;19433;51.292;6.868;2023-04-02T13:28:13;65403.31;;;-146.38;100.00
33075;BME280;19433;51.292;6.868;2023-04-02T13:30:39;65403.31;;;-146.38;100.00
33075;BME280;19433;51.292;6.868;2023-04-02T13:33:04;65403.31;;;-146.38;100.00
33075;BME280;19433;51.292;6.868;2023-04-02T13:35:29;65403.31;;;-146.38;100.00
33075;BME280;19433;51.292;6.868;2023-04-02T13:37:55;65403.31;;;-146.38;100.00
33075;BME280;19433;51.292;6.868;2023-04-02T13:40:21;65403.31;;;-146.38;100.00
33075;BME280;19433;51.292;6.868;2023-04-02T13:42:47;65403.31;;;-146.38;100.00
33075;BME280;19433;51.292;6.868;2023-04-02T13:45:32;65403.31;;;-146.38;100.00
33075;BME280;19433;51.292;6.868;2023-04-02T13:47:59;65403.31;;;-146.38;100.00
33075;BME280;19433;51.292;6.868;2023-04-02T13:50:29;65403.31;;;-146.38;100.00
33075;BME280;19433;51.292;6.868;2023-04-02T13:52:59;65403.31;;;-146.38;100.00
33075;BME280;19433;51.292;6.868;2023-04-02T13:55:29;65403.31;;;-146.38;100.00
33075;BME280;19433;51.292;6.868;2023-04-02T13:57:56;65403.31;;;-146.38;100.00
33075;BME280;19433;51.292;6.868;2023-04-02T14:00:22;65403.31;;;-146.38;100.00
33075;BME280;19433;51.292;6.868;2023-04-02T14:02:54;65403.31;;;-146.38;100.00
33075;BME280;19433;51.292;6.868;2023-04-02T14:05:30;65403.31;;;-146.38;100.00
33075;BME280;19433;51.292;6.868;2023-04-02T14:08:10;65403.31;;;-146.38;100.00
33075;BME280;19433;51.292;6.868;2023-04-02T14:13:31;65403.31;;;-146.38;100.00
33075;BME280;19433;51.292;6.868;2023-04-02T14:19:02;65403.31;;;-146.38;100.00
33075;BME280;19433;51.292;6.868;2023-04-02T14:25:01;65403.31;;;-146.38;100.00
33075;BME280;19433;51.292;6.868;2023-04-02T14:36:06;65403.31;;;-146.38;100.00
33075;BME280;19433;51.292;6.868;2023-04-02T14:39:27;65403.31;;;-146.38;100.00
33075;BME280;19433;51.292;6.868;2023-04-02T14:41:37;65403.31;;;-146.38;100.00
33075;BME280;19433;51.292;6.868;2023-04-02T14:44:06;65403.31;;;-146.38;100.00
33075;BME280;19433;51.292;6.868;2023-04-02T14:46:36;65403.31;;;-146.38;100.00
33075;BME280;19433;51.292;6.868;2023-04-02T14:54:08;65403.31;;;-146.38;100.00
33075;BME280;19433;51.292;6.868;2023-04-02T14:56:41;65403.31;;;-146.38;100.00
33075;BME280;19433;51.292;6.868;2023-04-02T14:59:16;65403.31;;;-146.38;100.00
33075;BME280;19433;51.292;6.868;2023-04-02T15:01:47;65403.31;;;-146.38;100.00
33075;BME280;19433;51.292;6.868;2023-04-02T15:04:17;65403.31;;;-146.38;100.00
33075;BME280;19433;51.292;6.868;2023-04-02T15:06:48;65403.31;;;-146.38;100.00
33075;BME280;19433;51.292;6.868;2023-04-02T15:09:22;65403.31;;;-146.38;100.00
33075;BME280;19433;51.292;6.868;2023-04-02T15:12:09;65403.31;;;-146.38;100.00
33075;BME280;19433;51.292;6.868;2023-04-02T15:14:40;65403.31;;;-146.38;100.00
33075;BME280;19433;51.292;6.868;2023-04-02T15:17:10;65403.31;;;-146.38;100.00